EZY6591 EGLL-EHAM
Flight info
| Callsign | EZY6591 |
|---|---|
| Flight time | 0h 55m |
| Altitude | 26000 |
| Route | BPK6J BPK Q295 BRAIN M197 REDFA REDFA1A |
| Aircraft | A320/M-SDE2E3FGIJ1RWYZ/S |
Departure
| Time | 2026-05-05 19:06 |
|---|---|
| Airport | London Heathrow Airport (EGLL) |
Arrival
| Time | 2026-05-05 20:01 |
|---|---|
| Airport | Amsterdam Airport Schiphol (EHAM) |
| Time | Latitude | Longitude | Altitude | Speed | Heading |
|---|---|---|---|---|---|
| 2026-05-05 18:27 | 51.47220 | -0.47715 | 96 ft | 0 kts | 90° |
| 2026-05-05 18:50 | 51.47220 | -0.47735 | 96 ft | 3 kts | 90° |
| 2026-05-05 18:50 | 51.47220 | -0.47767 | 92 ft | 3 kts | 90° |
| 2026-05-05 18:50 | 51.47220 | -0.47798 | 94 ft | 3 kts | 90° |
| 2026-05-05 18:50 | 51.47220 | -0.47828 | 94 ft | 3 kts | 90° |
| 2026-05-05 18:51 | 51.47223 | -0.47854 | 93 ft | 3 kts | 145° |
| 2026-05-05 18:51 | 51.47238 | -0.47871 | 94 ft | 3 kts | 145° |
| 2026-05-05 18:51 | 51.47248 | -0.47882 | 94 ft | 0 kts | 169° |
| 2026-05-05 18:56 | 51.47233 | -0.47878 | 95 ft | 4 kts | 170° |
| 2026-05-05 18:57 | 51.47203 | -0.47872 | 93 ft | 5 kts | 174° |
| 2026-05-05 18:57 | 51.47161 | -0.47868 | 93 ft | 8 kts | 177° |
| 2026-05-05 18:57 | 51.47088 | -0.47865 | 96 ft | 13 kts | 179° |
| 2026-05-05 18:57 | 51.46991 | -0.47866 | 96 ft | 14 kts | 184° |
| 2026-05-05 18:58 | 51.46894 | -0.47869 | 92 ft | 14 kts | 179° |
| 2026-05-05 18:58 | 51.46839 | -0.47869 | 92 ft | 7 kts | 180° |
| 2026-05-05 18:58 | 51.46795 | -0.47869 | 92 ft | 6 kts | 180° |
| 2026-05-05 18:58 | 51.46742 | -0.47867 | 92 ft | 6 kts | 177° |
| 2026-05-05 18:59 | 51.46692 | -0.47867 | 95 ft | 7 kts | 191° |
| 2026-05-05 18:59 | 51.46660 | -0.47904 | 95 ft | 5 kts | 239° |
| 2026-05-05 18:59 | 51.46654 | -0.47945 | 93 ft | 3 kts | 264° |
| 2026-05-05 18:59 | 51.46653 | -0.47960 | 92 ft | 0 kts | 265° |
| 2026-05-05 19:00 | 51.46653 | -0.47963 | 92 ft | 2 kts | 265° |
| 2026-05-05 19:00 | 51.46650 | -0.48035 | 94 ft | 11 kts | 269° |
| 2026-05-05 19:00 | 51.46651 | -0.48155 | 97 ft | 10 kts | 270° |
| 2026-05-05 19:01 | 51.46651 | -0.48264 | 96 ft | 9 kts | 270° |
| 2026-05-05 19:01 | 51.46651 | -0.48278 | 97 ft | 0 kts | 270° |
| 2026-05-05 19:02 | 51.46652 | -0.48343 | 97 ft | 12 kts | 271° |
| 2026-05-05 19:02 | 51.46652 | -0.48500 | 98 ft | 14 kts | 270° |
| 2026-05-05 19:02 | 51.46652 | -0.48613 | 97 ft | 9 kts | 270° |
| 2026-05-05 19:02 | 51.46651 | -0.48684 | 96 ft | 0 kts | 269° |
| 2026-05-05 19:03 | 51.46650 | -0.48691 | 96 ft | 2 kts | 261° |
| 2026-05-05 19:03 | 51.46636 | -0.48733 | 96 ft | 6 kts | 225° |
| 2026-05-05 19:03 | 51.46612 | -0.48753 | 97 ft | 0 kts | 203° |
| 2026-05-05 19:04 | 51.46600 | -0.48761 | 94 ft | 6 kts | 202° |
| 2026-05-05 19:04 | 51.46533 | -0.48780 | 95 ft | 11 kts | 169° |
| 2026-05-05 19:05 | 51.46486 | -0.48713 | 96 ft | 8 kts | 112° |
| 2026-05-05 19:05 | 51.46479 | -0.48576 | 96 ft | 34 kts | 90° |
| 2026-05-05 19:05 | 51.46485 | -0.47796 | 95 ft | 106 kts | 89° |
| 2026-05-05 19:05 | 51.46487 | -0.46244 | 184 ft | 156 kts | 88° |
| 2026-05-05 19:06 | 51.46485 | -0.44425 | 570 ft | 179 kts | 88° |
| 2026-05-05 19:06 | 51.46577 | -0.42389 | 1111 ft | 187 kts | 74° |
| 2026-05-05 19:06 | 51.47209 | -0.40523 | 1825 ft | 199 kts | 51° |
| 2026-05-05 19:06 | 51.48186 | -0.38739 | 2310 ft | 226 kts | 46° |
| 2026-05-05 19:07 | 51.49315 | -0.36842 | 2969 ft | 241 kts | 45° |
| 2026-05-05 19:07 | 51.50488 | -0.34871 | 3834 ft | 247 kts | 45° |
| 2026-05-05 19:07 | 51.51589 | -0.32725 | 4700 ft | 252 kts | 60° |
| 2026-05-05 19:07 | 51.52288 | -0.30104 | 5454 ft | 260 kts | 68° |
| 2026-05-05 19:08 | 51.52894 | -0.27343 | 5880 ft | 264 kts | 69° |
| 2026-05-05 19:08 | 51.53485 | -0.24547 | 5991 ft | 265 kts | 69° |
| 2026-05-05 19:08 | 51.54200 | -0.21829 | 5987 ft | 264 kts | 52° |
| 2026-05-05 19:08 | 51.55599 | -0.20020 | 5997 ft | 260 kts | 25° |
| 2026-05-05 19:09 | 51.57274 | -0.18919 | 6059 ft | 261 kts | 20° |
| 2026-05-05 19:09 | 51.58995 | -0.17962 | 6131 ft | 262 kts | 16° |
| 2026-05-05 19:09 | 51.60766 | -0.17174 | 6729 ft | 266 kts | 14° |
| 2026-05-05 19:09 | 51.62551 | -0.16395 | 7618 ft | 266 kts | 14° |
| 2026-05-05 19:10 | 51.64345 | -0.15594 | 8477 ft | 270 kts | 14° |
| 2026-05-05 19:10 | 51.66164 | -0.14767 | 9326 ft | 274 kts | 14° |
| 2026-05-05 19:10 | 51.68013 | -0.13917 | 10135 ft | 278 kts | 14° |
| 2026-05-05 19:10 | 51.69920 | -0.13035 | 10606 ft | 295 kts | 14° |
| 2026-05-05 19:11 | 51.71967 | -0.12086 | 10946 ft | 316 kts | 15° |
| 2026-05-05 19:11 | 51.74117 | -0.11110 | 11296 ft | 334 kts | 15° |
| 2026-05-05 19:11 | 51.76191 | -0.09321 | 11836 ft | 347 kts | 40° |
| 2026-05-05 19:11 | 51.77633 | -0.06163 | 12508 ft | 357 kts | 65° |
| 2026-05-05 19:12 | 51.78156 | -0.02234 | 13235 ft | 364 kts | 89° |
| 2026-05-05 19:12 | 51.77933 | 0.01847 | 14015 ft | 366 kts | 98° |
| 2026-05-05 19:12 | 51.77552 | 0.05918 | 14641 ft | 368 kts | 97° |
| 2026-05-05 19:12 | 51.77290 | 0.10045 | 14953 ft | 371 kts | 93° |
| 2026-05-05 19:13 | 51.77232 | 0.14207 | 15017 ft | 371 kts | 88° |
| 2026-05-05 19:13 | 51.77364 | 0.18375 | 15020 ft | 372 kts | 85° |
| 2026-05-05 19:13 | 51.77626 | 0.22536 | 15019 ft | 372 kts | 83° |
| 2026-05-05 19:13 | 51.77958 | 0.26679 | 15020 ft | 372 kts | 82° |
| 2026-05-05 19:14 | 51.78318 | 0.30820 | 15019 ft | 372 kts | 81° |
| 2026-05-05 19:14 | 51.78681 | 0.34956 | 15019 ft | 372 kts | 81° |
| 2026-05-05 19:14 | 51.79038 | 0.39100 | 15018 ft | 372 kts | 81° |
| 2026-05-05 19:14 | 51.79384 | 0.43246 | 15016 ft | 372 kts | 82° |
| 2026-05-05 19:15 | 51.79722 | 0.47395 | 15014 ft | 372 kts | 82° |
| 2026-05-05 19:15 | 51.80052 | 0.51541 | 15015 ft | 372 kts | 82° |
| 2026-05-05 19:15 | 51.80378 | 0.55689 | 15012 ft | 372 kts | 82° |
| 2026-05-05 19:15 | 51.80702 | 0.59840 | 15010 ft | 372 kts | 82° |
| 2026-05-05 19:16 | 51.81041 | 0.63996 | 15021 ft | 376 kts | 80° |
| 2026-05-05 19:16 | 51.81534 | 0.68141 | 15539 ft | 382 kts | 77° |
| 2026-05-05 19:16 | 51.82132 | 0.72314 | 16399 ft | 381 kts | 76° |
| 2026-05-05 19:16 | 51.82777 | 0.76478 | 17177 ft | 383 kts | 75° |
| 2026-05-05 19:17 | 51.83445 | 0.80654 | 17952 ft | 385 kts | 75° |
| 2026-05-05 19:17 | 51.84170 | 0.84842 | 18616 ft | 388 kts | 73° |
| 2026-05-05 19:17 | 51.84942 | 0.89055 | 19180 ft | 393 kts | 73° |
| 2026-05-05 19:17 | 51.85739 | 0.93313 | 19762 ft | 398 kts | 73° |
| 2026-05-05 19:18 | 51.86545 | 0.97625 | 20323 ft | 403 kts | 73° |
| 2026-05-05 19:18 | 51.87079 | 1.00499 | 20808 ft | 402 kts | 73° |
| 2026-05-05 19:18 | 51.88146 | 1.06309 | 21726 ft | 405 kts | 73° |
| 2026-05-05 19:18 | 51.88675 | 1.09215 | 22089 ft | 408 kts | 73° |
| 2026-05-05 19:19 | 51.89476 | 1.13642 | 22638 ft | 412 kts | 73° |
| 2026-05-05 19:19 | 51.90281 | 1.18117 | 22926 ft | 415 kts | 73° |
| 2026-05-05 19:19 | 51.91087 | 1.22609 | 22962 ft | 416 kts | 74° |
| 2026-05-05 19:19 | 51.91892 | 1.27116 | 22955 ft | 417 kts | 74° |
| 2026-05-05 19:20 | 51.92696 | 1.31626 | 22962 ft | 417 kts | 74° |
| 2026-05-05 19:20 | 51.93501 | 1.36148 | 22954 ft | 417 kts | 74° |
| 2026-05-05 19:20 | 51.94303 | 1.40665 | 22957 ft | 417 kts | 74° |
| 2026-05-05 19:20 | 51.95104 | 1.45187 | 22950 ft | 417 kts | 74° |
| 2026-05-05 19:21 | 51.95902 | 1.49705 | 22959 ft | 418 kts | 74° |
| 2026-05-05 19:21 | 51.96702 | 1.54240 | 22956 ft | 418 kts | 74° |
| 2026-05-05 19:21 | 51.97499 | 1.58774 | 22953 ft | 418 kts | 74° |
| 2026-05-05 19:21 | 51.98294 | 1.63305 | 22954 ft | 418 kts | 74° |
| 2026-05-05 19:22 | 51.99084 | 1.67843 | 22960 ft | 418 kts | 75° |
| 2026-05-05 19:22 | 51.99837 | 1.72401 | 22952 ft | 418 kts | 75° |
| 2026-05-05 19:22 | 52.00548 | 1.76907 | 22953 ft | 418 kts | 76° |
| 2026-05-05 19:22 | 52.01255 | 1.81490 | 22939 ft | 418 kts | 76° |
| 2026-05-05 19:23 | 52.01954 | 1.86063 | 22953 ft | 418 kts | 76° |
| 2026-05-05 19:23 | 52.02654 | 1.90647 | 22939 ft | 418 kts | 76° |
| 2026-05-05 19:23 | 52.03355 | 1.95230 | 22954 ft | 418 kts | 77° |
| 2026-05-05 19:23 | 52.04059 | 1.99822 | 22941 ft | 420 kts | 76° |
| 2026-05-05 19:24 | 52.04765 | 2.04433 | 22948 ft | 422 kts | 76° |
| 2026-05-05 19:24 | 52.05473 | 2.09063 | 22952 ft | 423 kts | 76° |
| 2026-05-05 19:24 | 52.06181 | 2.13702 | 22937 ft | 422 kts | 76° |
| 2026-05-05 19:24 | 52.06887 | 2.18338 | 22948 ft | 423 kts | 76° |
| 2026-05-05 19:25 | 52.07591 | 2.22979 | 22948 ft | 423 kts | 76° |
| 2026-05-05 19:25 | 52.08293 | 2.27617 | 22944 ft | 422 kts | 77° |
| 2026-05-05 19:25 | 52.08993 | 2.32255 | 22945 ft | 423 kts | 77° |
| 2026-05-05 19:25 | 52.09690 | 2.36891 | 22946 ft | 422 kts | 77° |
| 2026-05-05 19:26 | 52.10386 | 2.41533 | 22943 ft | 423 kts | 77° |
| 2026-05-05 19:26 | 52.11081 | 2.46178 | 22934 ft | 422 kts | 77° |
| 2026-05-05 19:26 | 52.11677 | 2.50861 | 22942 ft | 423 kts | 81° |
| 2026-05-05 19:26 | 52.12141 | 2.55594 | 22941 ft | 423 kts | 82° |
| 2026-05-05 19:27 | 52.12580 | 2.60334 | 22939 ft | 424 kts | 83° |
| 2026-05-05 19:27 | 52.13016 | 2.65083 | 22939 ft | 424 kts | 83° |
| 2026-05-05 19:27 | 52.13454 | 2.69830 | 22941 ft | 424 kts | 83° |
| 2026-05-05 19:27 | 52.13892 | 2.74576 | 22940 ft | 425 kts | 83° |
| 2026-05-05 19:28 | 52.14027 | 2.79289 | 22940 ft | 421 kts | 98° |
| 2026-05-05 19:28 | 52.13571 | 2.83992 | 22936 ft | 421 kts | 101° |
| 2026-05-05 19:28 | 52.13195 | 2.88712 | 22935 ft | 422 kts | 96° |
| 2026-05-05 19:28 | 52.12998 | 2.93484 | 22928 ft | 422 kts | 94° |
| 2026-05-05 19:29 | 52.12934 | 2.98262 | 22933 ft | 423 kts | 92° |
| 2026-05-05 19:29 | 52.12946 | 3.03064 | 22934 ft | 424 kts | 90° |
| 2026-05-05 19:29 | 52.13110 | 3.07851 | 23112 ft | 426 kts | 83° |
| 2026-05-05 19:29 | 52.13861 | 3.12532 | 22849 ft | 429 kts | 69° |
| 2026-05-05 19:30 | 52.15383 | 3.16664 | 22141 ft | 426 kts | 48° |
| 2026-05-05 19:30 | 52.17616 | 3.19774 | 21437 ft | 421 kts | 39° |
| 2026-05-05 19:30 | 52.19767 | 3.22966 | 20909 ft | 416 kts | 46° |
| 2026-05-05 19:30 | 52.20595 | 3.24458 | 20683 ft | 414 kts | 50° |
| 2026-05-05 19:31 | 52.21482 | 3.26263 | 20422 ft | 412 kts | 53° |
| 2026-05-05 19:33 | 52.22361 | 3.28313 | 20161 ft | 409 kts | 57° |
| 2026-05-05 19:33 | 52.23736 | 3.32272 | 19671 ft | 404 kts | 63° |
| 2026-05-05 19:34 | 52.25400 | 3.35942 | 20029 ft | 397 kts | 42° |
| 2026-05-05 19:34 | 52.27763 | 3.38138 | 20660 ft | 391 kts | 15° |
| 2026-05-05 19:34 | 52.30295 | 3.39222 | 21539 ft | 381 kts | 14° |
| 2026-05-05 19:35 | 52.35500 | 3.41604 | 22070 ft | 396 kts | 16° |
| 2026-05-05 19:35 | 52.38013 | 3.42846 | 22342 ft | 401 kts | 17° |
| 2026-05-05 19:35 | 52.40627 | 3.44210 | 22633 ft | 406 kts | 18° |
| 2026-05-05 19:35 | 52.43286 | 3.45663 | 22893 ft | 393 kts | 18° |
| 2026-05-05 19:36 | 52.45083 | 3.46644 | 22937 ft | 379 kts | 18° |
| 2026-05-05 19:37 | 52.45086 | 3.46646 | 22937 ft | 379 kts | 18° |
| 2026-05-05 19:37 | 52.46201 | 3.47254 | 22934 ft | 373 kts | 18° |
| 2026-05-05 19:37 | 52.48334 | 3.48423 | 22941 ft | 369 kts | 18° |
| 2026-05-05 19:38 | 52.49131 | 3.48857 | 22918 ft | 368 kts | 18° |
| 2026-05-05 19:38 | 52.51518 | 3.50164 | 22925 ft | 352 kts | 18° |
| 2026-05-05 19:38 | 52.53734 | 3.51561 | 22909 ft | 331 kts | 31° |
| 2026-05-05 19:39 | 52.55417 | 3.53900 | 22951 ft | 307 kts | 54° |
| 2026-05-05 19:39 | 52.56524 | 3.56735 | 22955 ft | 287 kts | 63° |
| 2026-05-05 19:39 | 52.57455 | 3.59562 | 22932 ft | 277 kts | 65° |
| 2026-05-05 19:39 | 52.58358 | 3.62354 | 22938 ft | 276 kts | 65° |
| 2026-05-05 19:40 | 52.59043 | 3.65269 | 22850 ft | 271 kts | 76° |
| 2026-05-05 19:40 | 52.59462 | 3.68270 | 22346 ft | 267 kts | 82° |
| 2026-05-05 19:40 | 52.59711 | 3.71249 | 21768 ft | 264 kts | 94° |
| 2026-05-05 19:40 | 52.59432 | 3.74190 | 21185 ft | 259 kts | 108° |
| 2026-05-05 19:41 | 52.58879 | 3.76992 | 20682 ft | 256 kts | 111° |
| 2026-05-05 19:41 | 52.58285 | 3.79736 | 20194 ft | 254 kts | 111° |
| 2026-05-05 19:41 | 52.57684 | 3.82453 | 19688 ft | 252 kts | 112° |
| 2026-05-05 19:41 | 52.57080 | 3.85154 | 19197 ft | 251 kts | 112° |
| 2026-05-05 19:42 | 52.56480 | 3.87846 | 18691 ft | 251 kts | 112° |
| 2026-05-05 19:42 | 52.55866 | 3.90511 | 18255 ft | 248 kts | 112° |
| 2026-05-05 19:42 | 52.55247 | 3.93140 | 17767 ft | 245 kts | 112° |
| 2026-05-05 19:42 | 52.54629 | 3.95746 | 17225 ft | 245 kts | 112° |
| 2026-05-05 19:43 | 52.54012 | 3.98351 | 16703 ft | 244 kts | 112° |
| 2026-05-05 19:43 | 52.53402 | 4.00945 | 16209 ft | 242 kts | 112° |
| 2026-05-05 19:43 | 52.52799 | 4.03508 | 15766 ft | 239 kts | 112° |
| 2026-05-05 19:43 | 52.52194 | 4.06059 | 15148 ft | 244 kts | 112° |
| 2026-05-05 19:44 | 52.51556 | 4.08698 | 14385 ft | 254 kts | 112° |
| 2026-05-05 19:44 | 52.50883 | 4.11466 | 13521 ft | 267 kts | 112° |
| 2026-05-05 19:44 | 52.50173 | 4.14356 | 12590 ft | 277 kts | 112° |
| 2026-05-05 19:44 | 52.49446 | 4.17288 | 11892 ft | 276 kts | 112° |
| 2026-05-05 19:45 | 52.48722 | 4.20185 | 11275 ft | 273 kts | 112° |
| 2026-05-05 19:45 | 52.48004 | 4.23040 | 10675 ft | 269 kts | 112° |
| 2026-05-05 19:45 | 52.47288 | 4.25863 | 10059 ft | 267 kts | 112° |
| 2026-05-05 19:45 | 52.46574 | 4.28657 | 9409 ft | 265 kts | 112° |
| 2026-05-05 19:46 | 52.45850 | 4.31418 | 8737 ft | 262 kts | 112° |
| 2026-05-05 19:46 | 52.45125 | 4.34130 | 8124 ft | 258 kts | 112° |
| 2026-05-05 19:46 | 52.44409 | 4.36764 | 7528 ft | 255 kts | 112° |
| 2026-05-05 19:46 | 52.43671 | 4.39428 | 6918 ft | 252 kts | 112° |
| 2026-05-05 19:47 | 52.42945 | 4.41977 | 6338 ft | 249 kts | 111° |
| 2026-05-05 19:47 | 52.42196 | 4.44523 | 5717 ft | 247 kts | 112° |
| 2026-05-05 19:47 | 52.41427 | 4.47002 | 5165 ft | 241 kts | 113° |
| 2026-05-05 19:47 | 52.40678 | 4.49430 | 4588 ft | 237 kts | 112° |
| 2026-05-05 19:48 | 52.39938 | 4.51821 | 3977 ft | 234 kts | 112° |
| 2026-05-05 19:48 | 52.39202 | 4.54177 | 3376 ft | 232 kts | 112° |
| 2026-05-05 19:48 | 52.38464 | 4.56510 | 2997 ft | 231 kts | 112° |
| 2026-05-05 19:48 | 52.37709 | 4.58839 | 2909 ft | 231 kts | 112° |
| 2026-05-05 19:49 | 52.36957 | 4.61166 | 2901 ft | 231 kts | 112° |
| 2026-05-05 19:49 | 52.36462 | 4.62707 | 2905 ft | 231 kts | 112° |
| 2026-05-05 19:49 | 52.35460 | 4.65841 | 3134 ft | 234 kts | 112° |
| 2026-05-05 19:49 | 52.34712 | 4.68200 | 3671 ft | 232 kts | 112° |
| 2026-05-05 19:50 | 52.33973 | 4.70541 | 3901 ft | 232 kts | 112° |
| 2026-05-05 19:50 | 52.33233 | 4.72898 | 3911 ft | 233 kts | 112° |
| 2026-05-05 19:50 | 52.32485 | 4.75259 | 3912 ft | 234 kts | 113° |
| 2026-05-05 19:50 | 52.31526 | 4.77429 | 3905 ft | 236 kts | 129° |
| 2026-05-05 19:51 | 52.30357 | 4.79212 | 3897 ft | 225 kts | 134° |
| 2026-05-05 19:51 | 52.29129 | 4.80732 | 3907 ft | 224 kts | 140° |
| 2026-05-05 19:51 | 52.27853 | 4.82188 | 3909 ft | 224 kts | 140° |
| 2026-05-05 19:51 | 52.26577 | 4.83630 | 3911 ft | 223 kts | 140° |
| 2026-05-05 19:52 | 52.25298 | 4.85063 | 3913 ft | 223 kts | 140° |
| 2026-05-05 19:52 | 52.24015 | 4.86493 | 3911 ft | 224 kts | 141° |
| 2026-05-05 19:52 | 52.22725 | 4.87911 | 3910 ft | 223 kts | 140° |
| 2026-05-05 19:52 | 52.21450 | 4.89357 | 3909 ft | 224 kts | 141° |
| 2026-05-05 19:53 | 52.19980 | 4.90237 | 3906 ft | 231 kts | 171° |
| 2026-05-05 19:53 | 52.18364 | 4.90191 | 3910 ft | 234 kts | 182° |
| 2026-05-05 19:53 | 52.16836 | 4.89949 | 3883 ft | 205 kts | 183° |
| 2026-05-05 19:53 | 52.15499 | 4.89695 | 3886 ft | 186 kts | 184° |
| 2026-05-05 19:54 | 52.14225 | 4.89456 | 3900 ft | 183 kts | 184° |
| 2026-05-05 19:54 | 52.12960 | 4.89222 | 3904 ft | 182 kts | 184° |
| 2026-05-05 19:54 | 52.11700 | 4.88986 | 3900 ft | 182 kts | 183° |
| 2026-05-05 19:54 | 52.10473 | 4.88447 | 3893 ft | 187 kts | 212° |
| 2026-05-05 19:55 | 52.09685 | 4.86838 | 3905 ft | 182 kts | 253° |
| 2026-05-05 19:55 | 52.09461 | 4.84837 | 3911 ft | 180 kts | 269° |
| 2026-05-05 19:55 | 52.09410 | 4.82803 | 3903 ft | 180 kts | 275° |
| 2026-05-05 19:55 | 52.09703 | 4.80890 | 3907 ft | 172 kts | 304° |
| 2026-05-05 19:56 | 52.10338 | 4.79261 | 3908 ft | 170 kts | 311° |
| 2026-05-05 19:56 | 52.11048 | 4.77727 | 3713 ft | 170 kts | 313° |
| 2026-05-05 19:56 | 52.11835 | 4.76288 | 3190 ft | 168 kts | 328° |
| 2026-05-05 19:56 | 52.12868 | 4.75613 | 2706 ft | 157 kts | 355° |
| 2026-05-05 19:57 | 52.13937 | 4.75471 | 2311 ft | 152 kts | 2° |
| 2026-05-05 19:57 | 52.14640 | 4.75437 | 2231 ft | 152 kts | 4° |
| 2026-05-05 19:57 | 52.16041 | 4.75621 | 2390 ft | 149 kts | 17° |
| 2026-05-05 19:57 | 52.17026 | 4.76118 | 2452 ft | 148 kts | 25° |
| 2026-05-05 19:58 | 52.17930 | 4.76916 | 2516 ft | 148 kts | 32° |
| 2026-05-05 19:58 | 52.18910 | 4.77468 | 2447 ft | 152 kts | 12° |
| 2026-05-05 19:58 | 52.19947 | 4.77622 | 2103 ft | 149 kts | 4° |
| 2026-05-05 19:58 | 52.20992 | 4.77364 | 1557 ft | 157 kts | 349° |
| 2026-05-05 19:59 | 52.22023 | 4.77003 | 1278 ft | 148 kts | 359° |
| 2026-05-05 19:59 | 52.23045 | 4.77000 | 1110 ft | 147 kts | 7° |
| 2026-05-05 19:59 | 52.24049 | 4.77195 | 969 ft | 144 kts | 11° |
| 2026-05-05 19:59 | 52.25050 | 4.77363 | 822 ft | 146 kts | 6° |
| 2026-05-05 20:00 | 52.26058 | 4.77396 | 589 ft | 141 kts | 2° |
| 2026-05-05 20:00 | 52.26999 | 4.77503 | 455 ft | 131 kts | 6° |
| 2026-05-05 20:00 | 52.27905 | 4.77611 | 219 ft | 130 kts | 5° |
| 2026-05-05 20:00 | 52.28830 | 4.77709 | 73 ft | 135 kts | 5° |
| 2026-05-05 20:01 | 52.29736 | 4.77793 | 17 ft | 123 kts | 2° |
| 2026-05-05 20:01 | 52.30354 | 4.77847 | 23 ft | 47 kts | 3° |
| 2026-05-05 20:01 | 52.30441 | 4.77856 | 23 ft | 1 kts | 3° |
| 2026-05-05 20:01 | 52.30456 | 4.77846 | 23 ft | 5 kts | 328° |
| 2026-05-05 20:02 | 52.30492 | 4.77787 | 23 ft | 10 kts | 309° |
| 2026-05-05 20:02 | 52.30566 | 4.77690 | 19 ft | 16 kts | 334° |
| 2026-05-05 20:02 | 52.30625 | 4.77630 | 17 ft | 12 kts | 316° |
| 2026-05-05 20:03 | 52.30639 | 4.77606 | 17 ft | 4 kts | 310° |
| 2026-05-05 20:03 | 52.30647 | 4.77541 | 16 ft | 6 kts | 267° |
| 2026-05-05 20:03 | 52.30642 | 4.77457 | 15 ft | 9 kts | 265° |
| 2026-05-05 20:03 | 52.30642 | 4.77339 | 12 ft | 12 kts | 272° |
| 2026-05-05 20:04 | 52.30647 | 4.77201 | 9 ft | 7 kts | 274° |
| 2026-05-05 20:04 | 52.30668 | 4.77158 | 9 ft | 5 kts | 339° |
| 2026-05-05 20:04 | 52.30705 | 4.77153 | 8 ft | 3 kts | 360° |